sensor_id;sensor_type;location;lat;lon;timestamp;P1;durP1;ratioP1;P2;durP2;ratioP2
9827;SDS011;4953;48.952;9.442;2022-09-01T04:00:27;24.97;;;20.20;;
9827;SDS011;4953;48.952;9.442;2022-09-01T04:02:57;27.03;;;20.00;;
9827;SDS011;4953;48.952;9.442;2022-09-01T04:05:24;29.07;;;21.30;;
9827;SDS011;4953;48.952;9.442;2022-09-01T04:07:53;27.43;;;20.40;;
9827;SDS011;4953;48.952;9.442;2022-09-01T04:10:21;31.10;;;21.67;;
9827;SDS011;4953;48.952;9.442;2022-09-01T04:12:48;33.20;;;20.57;;
9827;SDS011;4953;48.952;9.442;2022-09-01T04:15:16;28.83;;;21.90;;
9827;SDS011;4953;48.952;9.442;2022-09-01T04:17:45;31.30;;;21.57;;
9827;SDS011;4953;48.952;9.442;2022-09-01T04:20:33;27.17;;;20.10;;
9827;SDS011;4953;48.952;9.442;2022-09-01T04:23:12;29.10;;;20.20;;
9827;SDS011;4953;48.952;9.442;2022-09-01T04:25:50;31.67;;;21.50;;
9827;SDS011;4953;48.952;9.442;2022-09-01T04:28:18;33.20;;;21.17;;
9827;SDS011;4953;48.952;9.442;2022-09-01T04:30:52;31.70;;;21.80;;
9827;SDS011;4953;48.952;9.442;2022-09-01T04:33:22;28.30;;;21.40;;
9827;SDS011;4953;48.952;9.442;2022-09-01T04:35:50;28.17;;;20.10;;
9827;SDS011;4953;48.952;9.442;2022-09-01T04:38:19;32.47;;;22.30;;
9827;SDS011;4953;48.952;9.442;2022-09-01T04:40:46;30.70;;;21.00;;
9827;SDS011;4953;48.952;9.442;2022-09-01T04:43:14;32.63;;;21.90;;
9827;SDS011;4953;48.952;9.442;2022-09-01T04:45:41;30.50;;;20.57;;
9827;SDS011;4953;48.952;9.442;2022-09-01T04:48:10;31.53;;;21.00;;
9827;SDS011;4953;48.952;9.442;2022-09-01T04:50:40;31.67;;;20.57;;
9827;SDS011;4953;48.952;9.442;2022-09-01T04:53:06;31.20;;;21.77;;
9827;SDS011;4953;48.952;9.442;2022-09-01T04:55:36;29.73;;;21.27;;
9827;SDS011;4953;48.952;9.442;2022-09-01T04:58:07;30.33;;;21.63;;
9827;SDS011;4953;48.952;9.442;2022-09-01T05:00:37;28.00;;;19.70;;
9827;SDS011;4953;48.952;9.442;2022-09-01T05:03:04;27.63;;;18.70;;
9827;SDS011;4953;48.952;9.442;2022-09-01T05:05:35;37.50;;;21.67;;
9827;SDS011;4953;48.952;9.442;2022-09-01T05:08:08;34.10;;;21.20;;
9827;SDS011;4953;48.952;9.442;2022-09-01T05:10:38;26.43;;;19.00;;
9827;SDS011;4953;48.952;9.442;2022-09-01T05:13:06;27.43;;;19.80;;
9827;SDS011;4953;48.952;9.442;2022-09-01T05:15:34;24.87;;;18.10;;
9827;SDS011;4953;48.952;9.442;2022-09-01T05:18:02;29.37;;;20.07;;
9827;SDS011;4953;48.952;9.442;2022-09-01T05:20:35;31.60;;;20.47;;
9827;SDS011;4953;48.952;9.442;2022-09-01T05:23:07;30.30;;;21.67;;
9827;SDS011;4953;48.952;9.442;2022-09-01T05:25:37;28.90;;;20.10;;
9827;SDS011;4953;48.952;9.442;2022-09-01T05:28:06;31.23;;;22.30;;
9827;SDS011;4953;48.952;9.442;2022-09-01T05:30:36;29.93;;;21.13;;
9827;SDS011;4953;48.952;9.442;2022-09-01T05:33:04;27.73;;;20.33;;
9827;SDS011;4953;48.952;9.442;2022-09-01T05:35:36;31.40;;;21.77;;
9827;SDS011;4953;48.952;9.442;2022-09-01T05:38:09;29.13;;;20.70;;
9827;SDS011;4953;48.952;9.442;2022-09-01T05:40:38;30.90;;;21.60;;
9827;SDS011;4953;48.952;9.442;2022-09-01T05:43:05;30.23;;;21.17;;
9827;SDS011;4953;48.952;9.442;2022-09-01T05:45:37;31.37;;;21.30;;
9827;SDS011;4953;48.952;9.442;2022-09-01T05:48:09;27.70;;;20.87;;
9827;SDS011;4953;48.952;9.442;2022-09-01T05:50:41;25.70;;;19.30;;
9827;SDS011;4953;48.952;9.442;2022-09-01T05:53:11;29.63;;;21.83;;
9827;SDS011;4953;48.952;9.442;2022-09-01T05:55:41;29.50;;;21.37;;
9827;SDS011;4953;48.952;9.442;2022-09-01T05:58:09;31.63;;;21.37;;
9827;SDS011;4953;48.952;9.442;2022-09-01T06:00:37;28.90;;;21.30;;
9827;SDS011;4953;48.952;9.442;2022-09-01T06:03:05;28.67;;;20.73;;
9827;SDS011;4953;48.952;9.442;2022-09-01T06:05:33;26.37;;;18.70;;
9827;SDS011;4953;48.952;9.442;2022-09-01T06:08:01;28.90;;;19.80;;
9827;SDS011;4953;48.952;9.442;2022-09-01T06:10:30;24.93;;;19.57;;
9827;SDS011;4953;48.952;9.442;2022-09-01T06:12:59;25.00;;;18.83;;
9827;SDS011;4953;48.952;9.442;2022-09-01T06:15:27;29.53;;;20.67;;
9827;SDS011;4953;48.952;9.442;2022-09-01T06:17:54;29.53;;;22.20;;
9827;SDS011;4953;48.952;9.442;2022-09-01T06:20:21;30.47;;;19.43;;
9827;SDS011;4953;48.952;9.442;2022-09-01T06:22:48;25.00;;;18.37;;
9827;SDS011;4953;48.952;9.442;2022-09-01T06:25:16;27.27;;;20.20;;
9827;SDS011;4953;48.952;9.442;2022-09-01T06:27:47;25.63;;;19.53;;
9827;SDS011;4953;48.952;9.442;2022-09-01T06:30:19;28.13;;;19.67;;
9827;SDS011;4953;48.952;9.442;2022-09-01T06:32:50;35.07;;;22.23;;
9827;SDS011;4953;48.952;9.442;2022-09-01T06:35:18;30.13;;;19.80;;
9827;SDS011;4953;48.952;9.442;2022-09-01T06:37:45;28.00;;;19.90;;
9827;SDS011;4953;48.952;9.442;2022-09-01T06:40:13;29.20;;;20.20;;
9827;SDS011;4953;48.952;9.442;2022-09-01T06:42:42;27.90;;;19.93;;
9827;SDS011;4953;48.952;9.442;2022-09-01T06:45:12;26.20;;;19.20;;
9827;SDS011;4953;48.952;9.442;2022-09-01T06:47:40;24.77;;;17.93;;
9827;SDS011;4953;48.952;9.442;2022-09-01T06:50:09;23.80;;;18.80;;
9827;SDS011;4953;48.952;9.442;2022-09-01T06:52:39;23.20;;;17.67;;
9827;SDS011;4953;48.952;9.442;2022-09-01T06:55:07;25.53;;;18.40;;
9827;SDS011;4953;48.952;9.442;2022-09-01T06:57:35;25.37;;;18.67;;
9827;SDS011;4953;48.952;9.442;2022-09-01T07:00:03;25.47;;;16.87;;
9827;SDS011;4953;48.952;9.442;2022-09-01T07:02:42;24.50;;;17.77;;
9827;SDS011;4953;48.952;9.442;2022-09-01T07:05:09;23.63;;;17.60;;
9827;SDS011;4953;48.952;9.442;2022-09-01T07:07:41;20.90;;;17.43;;
9827;SDS011;4953;48.952;9.442;2022-09-01T07:10:15;19.83;;;15.67;;
9827;SDS011;4953;48.952;9.442;2022-09-01T07:12:46;22.20;;;16.77;;
9827;SDS011;4953;48.952;9.442;2022-09-01T07:15:13;22.10;;;16.00;;
9827;SDS011;4953;48.952;9.442;2022-09-01T07:17:44;21.37;;;15.40;;
9827;SDS011;4953;48.952;9.442;2022-09-01T07:20:15;19.87;;;15.47;;
9827;SDS011;4953;48.952;9.442;2022-09-01T07:22:43;19.30;;;15.57;;
9827;SDS011;4953;48.952;9.442;2022-09-01T07:25:10;21.60;;;15.23;;
9827;SDS011;4953;48.952;9.442;2022-09-01T07:27:37;19.90;;;15.00;;
9827;SDS011;4953;48.952;9.442;2022-09-01T07:30:05;22.27;;;14.87;;
9827;SDS011;4953;48.952;9.442;2022-09-01T07:32:34;17.80;;;12.87;;
9827;SDS011;4953;48.952;9.442;2022-09-01T07:35:05;14.80;;;12.43;;
9827;SDS011;4953;48.952;9.442;2022-09-01T07:37:33;15.43;;;11.43;;
9827;SDS011;4953;48.952;9.442;2022-09-01T07:40:02;13.03;;;10.67;;
9827;SDS011;4953;48.952;9.442;2022-09-01T07:42:31;12.07;;;10.27;;
9827;SDS011;4953;48.952;9.442;2022-09-01T07:44:58;12.40;;;10.30;;
9827;SDS011;4953;48.952;9.442;2022-09-01T07:47:25;10.17;;;8.90;;
9827;SDS011;4953;48.952;9.442;2022-09-01T07:49:54;12.23;;;9.07;;
9827;SDS011;4953;48.952;9.442;2022-09-01T07:52:22;11.20;;;9.30;;
9827;SDS011;4953;48.952;9.442;2022-09-01T07:54:49;10.57;;;8.87;;
9827;SDS011;4953;48.952;9.442;2022-09-01T07:57:16;10.87;;;9.40;;
9827;SDS011;4953;48.952;9.442;2022-09-01T07:59:43;13.13;;;8.73;;
9827;SDS011;4953;48.952;9.442;2022-09-01T08:02:10;11.10;;;8.60;;
9827;SDS011;4953;48.952;9.442;2022-09-01T08:04:37;9.23;;;8.30;;
9827;SDS011;4953;48.952;9.442;2022-09-01T08:07:05;10.60;;;8.27;;
9827;SDS011;4953;48.952;9.442;2022-09-01T08:09:36;10.70;;;8.10;;
9827;SDS011;4953;48.952;9.442;2022-09-01T08:12:03;8.70;;;7.70;;
9827;SDS011;4953;48.952;9.442;2022-09-01T08:14:30;8.47;;;7.60;;
9827;SDS011;4953;48.952;9.442;2022-09-01T08:16:57;8.73;;;6.60;;
9827;SDS011;4953;48.952;9.442;2022-09-01T08:19:23;7.90;;;7.10;;
9827;SDS011;4953;48.952;9.442;2022-09-01T08:21:50;7.97;;;7.17;;
9827;SDS011;4953;48.952;9.442;2022-09-01T08:24:17;8.50;;;7.70;;
9827;SDS011;4953;48.952;9.442;2022-09-01T08:26:45;7.33;;;6.63;;
9827;SDS011;4953;48.952;9.442;2022-09-01T08:29:12;7.93;;;6.60;;
9827;SDS011;4953;48.952;9.442;2022-09-01T08:31:39;7.77;;;6.47;;
9827;SDS011;4953;48.952;9.442;2022-09-01T08:34:06;7.70;;;6.57;;
9827;SDS011;4953;48.952;9.442;2022-09-01T08:36:36;9.37;;;6.77;;
9827;SDS011;4953;48.952;9.442;2022-09-01T08:39:04;8.23;;;6.37;;
9827;SDS011;4953;48.952;9.442;2022-09-01T08:41:38;7.90;;;7.10;;
9827;SDS011;4953;48.952;9.442;2022-09-01T08:44:12;6.90;;;6.00;;
9827;SDS011;4953;48.952;9.442;2022-09-01T08:46:46;6.33;;;5.73;;
9827;SDS011;4953;48.952;9.442;2022-09-01T08:49:20;5.97;;;5.10;;
9827;SDS011;4953;48.952;9.442;2022-09-01T08:51:50;6.57;;;5.97;;
9827;SDS011;4953;48.952;9.442;2022-09-01T08:54:22;7.97;;;5.50;;
9827;SDS011;4953;48.952;9.442;2022-09-01T08:56:53;5.90;;;5.30;;
9827;SDS011;4953;48.952;9.442;2022-09-01T08:59:23;5.67;;;5.10;;
9827;SDS011;4953;48.952;9.442;2022-09-01T09:01:53;7.90;;;5.10;;
9827;SDS011;4953;48.952;9.442;2022-09-01T09:04:29;6.93;;;6.23;;
9827;SDS011;4953;48.952;9.442;2022-09-01T09:07:15;6.70;;;6.00;;
9827;SDS011;4953;48.952;9.442;2022-09-01T09:09:49;6.60;;;6.00;;
9827;SDS011;4953;48.952;9.442;2022-09-01T09:12:28;9.50;;;7.43;;
9827;SDS011;4953;48.952;9.442;2022-09-01T09:15:12;7.87;;;6.47;;
9827;SDS011;4953;48.952;9.442;2022-09-01T09:17:45;8.03;;;7.20;;
9827;SDS011;4953;48.952;9.442;2022-09-01T09:20:17;7.20;;;6.50;;
9827;SDS011;4953;48.952;9.442;2022-09-01T09:22:44;7.20;;;6.20;;
9827;SDS011;4953;48.952;9.442;2022-09-01T09:25:14;7.10;;;6.10;;
9827;SDS011;4953;48.952;9.442;2022-09-01T09:27:43;6.20;;;5.60;;
9827;SDS011;4953;48.952;9.442;2022-09-01T09:30:13;5.83;;;5.33;;
9827;SDS011;4953;48.952;9.442;2022-09-01T09:32:45;5.00;;;4.30;;
9827;SDS011;4953;48.952;9.442;2022-09-01T09:35:22;4.87;;;4.37;;
9827;SDS011;4953;48.952;9.442;2022-09-01T09:37:52;4.23;;;3.83;;
9827;SDS011;4953;48.952;9.442;2022-09-01T09:40:19;5.70;;;4.10;;
9827;SDS011;4953;48.952;9.442;2022-09-01T09:42:58;6.63;;;4.47;;
9827;SDS011;4953;48.952;9.442;2022-09-01T09:45:30;4.90;;;4.40;;
9827;SDS011;4953;48.952;9.442;2022-09-01T09:47:59;5.30;;;4.20;;
9827;SDS011;4953;48.952;9.442;2022-09-01T09:50:30;6.40;;;5.43;;
9827;SDS011;4953;48.952;9.442;2022-09-01T09:53:10;5.90;;;5.30;;
9827;SDS011;4953;48.952;9.442;2022-09-01T09:55:49;6.50;;;5.90;;
9827;SDS011;4953;48.952;9.442;2022-09-01T09:58:23;6.20;;;5.70;;
9827;SDS011;4953;48.952;9.442;2022-09-01T10:01:01;6.40;;;5.50;;
9827;SDS011;4953;48.952;9.442;2022-09-01T10:03:34;7.90;;;5.80;;
9827;SDS011;4953;48.952;9.442;2022-09-01T10:06:10;6.60;;;5.60;;
9827;SDS011;4953;48.952;9.442;2022-09-01T10:08:40;6.30;;;5.30;;
9827;SDS011;4953;48.952;9.442;2022-09-01T10:11:23;5.73;;;5.23;;
9827;SDS011;4953;48.952;9.442;2022-09-01T10:13:52;6.17;;;5.53;;
9827;SDS011;4953;48.952;9.442;2022-09-01T10:16:24;9.10;;;5.20;;
9827;SDS011;4953;48.952;9.442;2022-09-01T10:18:54;7.57;;;5.60;;
9827;SDS011;4953;48.952;9.442;2022-09-01T10:21:25;5.83;;;4.53;;
9827;SDS011;4953;48.952;9.442;2022-09-01T10:23:57;4.93;;;4.43;;
9827;SDS011;4953;48.952;9.442;2022-09-01T10:26:25;5.63;;;4.60;;
9827;SDS011;4953;48.952;9.442;2022-09-01T10:29:00;6.13;;;5.53;;
9827;SDS011;4953;48.952;9.442;2022-09-01T10:31:33;5.10;;;4.60;;
9827;SDS011;4953;48.952;9.442;2022-09-01T10:34:02;6.13;;;4.20;;
9827;SDS011;4953;48.952;9.442;2022-09-01T10:36:31;7.33;;;5.00;;
9827;SDS011;4953;48.952;9.442;2022-09-01T10:38:59;5.27;;;4.50;;
9827;SDS011;4953;48.952;9.442;2022-09-01T10:41:43;5.37;;;4.87;;
9827;SDS011;4953;48.952;9.442;2022-09-01T10:44:19;7.53;;;3.97;;
9827;SDS011;4953;48.952;9.442;2022-09-01T10:46:50;5.13;;;4.00;;
9827;SDS011;4953;48.952;9.442;2022-09-01T10:49:19;5.43;;;4.10;;
9827;SDS011;4953;48.952;9.442;2022-09-01T10:52:07;4.30;;;3.93;;
9827;SDS011;4953;48.952;9.442;2022-09-01T10:54:51;4.60;;;4.17;;
9827;SDS011;4953;48.952;9.442;2022-09-01T10:57:24;4.50;;;4.10;;
9827;SDS011;4953;48.952;9.442;2022-09-01T11:00:19;4.93;;;4.53;;
9827;SDS011;4953;48.952;9.442;2022-09-01T11:06:01;4.53;;;4.10;;
9827;SDS011;4953;48.952;9.442;2022-09-01T11:08:43;5.13;;;4.37;;
9827;SDS011;4953;48.952;9.442;2022-09-01T11:11:15;4.63;;;4.23;;
9827;SDS011;4953;48.952;9.442;2022-09-01T11:13:54;4.00;;;3.60;;
9827;SDS011;4953;48.952;9.442;2022-09-01T11:16:27;4.43;;;4.10;;
9827;SDS011;4953;48.952;9.442;2022-09-01T11:22:05;4.13;;;3.73;;
9827;SDS011;4953;48.952;9.442;2022-09-01T11:24:49;4.57;;;4.10;;
9827;SDS011;4953;48.952;9.442;2022-09-01T11:30:23;4.60;;;4.10;;
9827;SDS011;4953;48.952;9.442;2022-09-01T11:33:01;4.03;;;3.60;;
9827;SDS011;4953;48.952;9.442;2022-09-01T11:35:46;4.00;;;3.70;;
9827;SDS011;4953;48.952;9.442;2022-09-01T11:38:24;4.80;;;4.20;;
9827;SDS011;4953;48.952;9.442;2022-09-01T11:40:53;4.27;;;3.87;;
9827;SDS011;4953;48.952;9.442;2022-09-01T11:43:21;4.47;;;4.10;;
9827;SDS011;4953;48.952;9.442;2022-09-01T11:45:52;4.00;;;3.60;;
9827;SDS011;4953;48.952;9.442;2022-09-01T11:48:27;4.23;;;3.83;;
9827;SDS011;4953;48.952;9.442;2022-09-01T11:50:56;4.67;;;4.27;;
9827;SDS011;4953;48.952;9.442;2022-09-01T11:53:26;4.77;;;4.27;;
9827;SDS011;4953;48.952;9.442;2022-09-01T11:55:54;4.23;;;3.83;;
9827;SDS011;4953;48.952;9.442;2022-09-01T11:58:35;4.33;;;3.93;;
9827;SDS011;4953;48.952;9.442;2022-09-01T12:01:14;10.43;;;4.40;;
9827;SDS011;4953;48.952;9.442;2022-09-01T12:03:43;4.60;;;4.20;;
9827;SDS011;4953;48.952;9.442;2022-09-01T12:06:11;4.70;;;4.13;;
9827;SDS011;4953;48.952;9.442;2022-09-01T12:08:51;4.90;;;4.40;;
9827;SDS011;4953;48.952;9.442;2022-09-01T12:11:21;4.80;;;4.40;;
9827;SDS011;4953;48.952;9.442;2022-09-01T12:13:55;4.20;;;3.73;;
9827;SDS011;4953;48.952;9.442;2022-09-01T12:16:24;4.20;;;3.80;;
9827;SDS011;4953;48.952;9.442;2022-09-01T12:18:52;4.27;;;3.87;;
9827;SDS011;4953;48.952;9.442;2022-09-01T12:21:21;5.00;;;4.50;;
9827;SDS011;4953;48.952;9.442;2022-09-01T12:23:52;4.93;;;4.47;;
9827;SDS011;4953;48.952;9.442;2022-09-01T12:26:21;5.40;;;3.93;;
9827;SDS011;4953;48.952;9.442;2022-09-01T12:28:50;4.93;;;4.20;;
9827;SDS011;4953;48.952;9.442;2022-09-01T12:31:19;4.30;;;4.00;;
9827;SDS011;4953;48.952;9.442;2022-09-01T12:33:48;4.40;;;4.00;;
9827;SDS011;4953;48.952;9.442;2022-09-01T12:36:23;4.97;;;4.30;;
9827;SDS011;4953;48.952;9.442;2022-09-01T12:38:54;4.23;;;3.83;;
9827;SDS011;4953;48.952;9.442;2022-09-01T12:41:26;4.27;;;3.87;;
9827;SDS011;4953;48.952;9.442;2022-09-01T12:46:53;4.10;;;3.70;;
9827;SDS011;4953;48.952;9.442;2022-09-01T12:49:21;4.80;;;4.40;;
9827;SDS011;4953;48.952;9.442;2022-09-01T12:51:49;9.13;;;4.03;;
9827;SDS011;4953;48.952;9.442;2022-09-01T12:54:47;4.53;;;4.00;;
9827;SDS011;4953;48.952;9.442;2022-09-01T12:57:24;4.23;;;3.63;;
9827;SDS011;4953;48.952;9.442;2022-09-01T13:00:13;4.30;;;3.50;;
9827;SDS011;4953;48.952;9.442;2022-09-01T13:02:44;3.43;;;3.13;;
9827;SDS011;4953;48.952;9.442;2022-09-01T13:05:17;3.60;;;3.30;;
9827;SDS011;4953;48.952;9.442;2022-09-01T13:07:45;4.00;;;3.60;;
9827;SDS011;4953;48.952;9.442;2022-09-01T13:10:13;3.40;;;3.10;;
9827;SDS011;4953;48.952;9.442;2022-09-01T13:12:41;7.90;;;3.50;;
9827;SDS011;4953;48.952;9.442;2022-09-01T13:15:08;7.27;;;3.17;;
9827;SDS011;4953;48.952;9.442;2022-09-01T13:17:36;4.50;;;3.00;;
9827;SDS011;4953;48.952;9.442;2022-09-01T13:20:03;3.33;;;3.03;;
9827;SDS011;4953;48.952;9.442;2022-09-01T13:22:30;3.03;;;2.73;;
9827;SDS011;4953;48.952;9.442;2022-09-01T13:24:57;4.53;;;2.70;;
9827;SDS011;4953;48.952;9.442;2022-09-01T13:27:25;3.33;;;3.03;;
9827;SDS011;4953;48.952;9.442;2022-09-01T13:29:52;3.80;;;3.23;;
9827;SDS011;4953;48.952;9.442;2022-09-01T13:32:20;3.63;;;3.33;;
9827;SDS011;4953;48.952;9.442;2022-09-01T13:34:48;4.17;;;3.07;;
9827;SDS011;4953;48.952;9.442;2022-09-01T13:37:17;3.17;;;2.87;;
9827;SDS011;4953;48.952;9.442;2022-09-01T13:39:44;4.73;;;3.30;;
9827;SDS011;4953;48.952;9.442;2022-09-01T13:42:12;4.97;;;3.80;;
9827;SDS011;4953;48.952;9.442;2022-09-01T13:44:41;3.40;;;3.10;;
9827;SDS011;4953;48.952;9.442;2022-09-01T13:47:08;3.80;;;3.23;;
9827;SDS011;4953;48.952;9.442;2022-09-01T13:49:35;4.60;;;3.27;;
9827;SDS011;4953;48.952;9.442;2022-09-01T13:52:02;3.33;;;2.93;;
9827;SDS011;4953;48.952;9.442;2022-09-01T13:54:28;3.67;;;3.30;;
9827;SDS011;4953;48.952;9.442;2022-09-01T13:56:55;3.30;;;3.00;;
9827;SDS011;4953;48.952;9.442;2022-09-01T13:59:23;3.87;;;3.47;;
9827;SDS011;4953;48.952;9.442;2022-09-01T14:01:51;5.23;;;3.27;;
9827;SDS011;4953;48.952;9.442;2022-09-01T14:04:18;3.37;;;3.10;;
9827;SDS011;4953;48.952;9.442;2022-09-01T14:06:46;5.10;;;2.90;;
9827;SDS011;4953;48.952;9.442;2022-09-01T14:09:14;3.00;;;2.70;;
9827;SDS011;4953;48.952;9.442;2022-09-01T14:11:41;3.33;;;3.03;;
9827;SDS011;4953;48.952;9.442;2022-09-01T14:14:08;3.40;;;2.50;;
9827;SDS011;4953;48.952;9.442;2022-09-01T14:16:35;3.90;;;3.00;;
9827;SDS011;4953;48.952;9.442;2022-09-01T14:19:03;3.90;;;3.00;;
9827;SDS011;4953;48.952;9.442;2022-09-01T14:21:30;3.20;;;2.90;;
9827;SDS011;4953;48.952;9.442;2022-09-01T14:23:57;6.57;;;2.70;;
9827;SDS011;4953;48.952;9.442;2022-09-01T14:26:24;4.70;;;3.23;;
9827;SDS011;4953;48.952;9.442;2022-09-01T14:28:51;4.17;;;2.90;;
9827;SDS011;4953;48.952;9.442;2022-09-01T14:31:19;3.23;;;2.93;;
9827;SDS011;4953;48.952;9.442;2022-09-01T14:33:46;4.10;;;3.00;;
9827;SDS011;4953;48.952;9.442;2022-09-01T14:36:19;2.50;;;2.30;;
9827;SDS011;4953;48.952;9.442;2022-09-01T14:38:48;3.70;;;3.30;;
9827;SDS011;4953;48.952;9.442;2022-09-01T14:41:16;2.77;;;2.57;;
9827;SDS011;4953;48.952;9.442;2022-09-01T14:43:48;4.17;;;3.37;;
9827;SDS011;4953;48.952;9.442;2022-09-01T14:46:15;4.30;;;3.40;;
9827;SDS011;4953;48.952;9.442;2022-09-01T14:48:43;4.20;;;3.00;;
9827;SDS011;4953;48.952;9.442;2022-09-01T14:51:18;3.87;;;3.13;;
9827;SDS011;4953;48.952;9.442;2022-09-01T14:53:49;6.47;;;3.03;;
9827;SDS011;4953;48.952;9.442;2022-09-01T14:56:16;5.57;;;3.50;;
9827;SDS011;4953;48.952;9.442;2022-09-01T14:58:43;3.20;;;2.90;;
9827;SDS011;4953;48.952;9.442;2022-09-01T15:01:12;3.90;;;3.20;;
9827;SDS011;4953;48.952;9.442;2022-09-01T15:03:40;4.30;;;3.50;;
9827;SDS011;4953;48.952;9.442;2022-09-01T15:06:10;3.67;;;3.37;;
9827;SDS011;4953;48.952;9.442;2022-09-01T15:08:39;3.73;;;3.40;;
9827;SDS011;4953;48.952;9.442;2022-09-01T15:11:07;4.17;;;3.77;;
9827;SDS011;4953;48.952;9.442;2022-09-01T15:13:35;3.40;;;3.10;;
9827;SDS011;4953;48.952;9.442;2022-09-01T15:16:02;4.20;;;3.73;;
9827;SDS011;4953;48.952;9.442;2022-09-01T15:18:29;3.60;;;3.30;;
9827;SDS011;4953;48.952;9.442;2022-09-01T15:20:59;4.20;;;3.80;;
9827;SDS011;4953;48.952;9.442;2022-09-01T15:23:26;5.33;;;3.80;;
9827;SDS011;4953;48.952;9.442;2022-09-01T15:25:57;4.70;;;4.30;;
9827;SDS011;4953;48.952;9.442;2022-09-01T15:28:24;4.63;;;3.97;;
9827;SDS011;4953;48.952;9.442;2022-09-01T15:30:51;4.63;;;4.20;;
9827;SDS011;4953;48.952;9.442;2022-09-01T15:33:20;4.53;;;4.13;;
9827;SDS011;4953;48.952;9.442;2022-09-01T15:35:47;4.30;;;3.47;;
9827;SDS011;4953;48.952;9.442;2022-09-01T15:38:15;4.40;;;3.87;;
9827;SDS011;4953;48.952;9.442;2022-09-01T15:40:42;4.47;;;4.07;;
9827;SDS011;4953;48.952;9.442;2022-09-01T15:43:11;4.50;;;3.50;;
9827;SDS011;4953;48.952;9.442;2022-09-01T15:45:38;4.27;;;3.60;;
9827;SDS011;4953;48.952;9.442;2022-09-01T15:48:05;4.60;;;4.20;;
9827;SDS011;4953;48.952;9.442;2022-09-01T15:50:32;3.83;;;3.53;;
9827;SDS011;4953;48.952;9.442;2022-09-01T15:53:00;5.10;;;3.60;;
9827;SDS011;4953;48.952;9.442;2022-09-01T15:55:35;8.87;;;3.20;;
9827;SDS011;4953;48.952;9.442;2022-09-01T15:58:05;4.13;;;3.73;;
9827;SDS011;4953;48.952;9.442;2022-09-01T16:00:34;3.97;;;3.60;;
9827;SDS011;4953;48.952;9.442;2022-09-01T16:03:01;3.70;;;3.40;;
9827;SDS011;4953;48.952;9.442;2022-09-01T16:05:28;5.10;;;3.30;;
9827;SDS011;4953;48.952;9.442;2022-09-01T16:07:56;25.77;;;4.20;;
9827;SDS011;4953;48.952;9.442;2022-09-01T16:10:25;11.80;;;3.40;;
9827;SDS011;4953;48.952;9.442;2022-09-01T16:12:53;5.37;;;3.33;;
9827;SDS011;4953;48.952;9.442;2022-09-01T16:15:21;3.13;;;2.83;;
9827;SDS011;4953;48.952;9.442;2022-09-01T16:17:54;5.07;;;3.23;;
9827;SDS011;4953;48.952;9.442;2022-09-01T16:20:32;4.63;;;3.50;;
9827;SDS011;4953;48.952;9.442;2022-09-01T16:23:06;4.77;;;3.27;;
9827;SDS011;4953;48.952;9.442;2022-09-01T16:25:37;5.27;;;3.70;;
9827;SDS011;4953;48.952;9.442;2022-09-01T16:28:08;4.20;;;3.57;;
9827;SDS011;4953;48.952;9.442;2022-09-01T16:30:46;4.27;;;3.70;;
9827;SDS011;4953;48.952;9.442;2022-09-01T16:33:16;3.70;;;3.30;;
9827;SDS011;4953;48.952;9.442;2022-09-01T16:35:48;3.80;;;3.50;;
9827;SDS011;4953;48.952;9.442;2022-09-01T16:38:28;4.27;;;3.50;;
9827;SDS011;4953;48.952;9.442;2022-09-01T16:41:02;3.47;;;3.17;;
9827;SDS011;4953;48.952;9.442;2022-09-01T16:43:41;4.05;;;3.65;;
9827;SDS011;4953;48.952;9.442;2022-09-01T16:46:15;3.87;;;3.47;;
9827;SDS011;4953;48.952;9.442;2022-09-01T16:48:52;4.23;;;3.87;;
9827;SDS011;4953;48.952;9.442;2022-09-01T16:51:26;4.87;;;4.37;;
9827;SDS011;4953;48.952;9.442;2022-09-01T16:54:04;6.03;;;3.80;;
9827;SDS011;4953;48.952;9.442;2022-09-01T16:56:41;4.30;;;3.90;;
9827;SDS011;4953;48.952;9.442;2022-09-01T16:59:16;7.63;;;4.23;;
9827;SDS011;4953;48.952;9.442;2022-09-01T17:01:50;4.70;;;4.30;;
9827;SDS011;4953;48.952;9.442;2022-09-01T17:04:30;4.47;;;3.90;;
9827;SDS011;4953;48.952;9.442;2022-09-01T17:07:02;4.80;;;3.87;;
9827;SDS011;4953;48.952;9.442;2022-09-01T17:09:34;4.47;;;4.07;;
9827;SDS011;4953;48.952;9.442;2022-09-01T17:12:19;4.00;;;3.70;;
9827;SDS011;4953;48.952;9.442;2022-09-01T17:14:52;4.10;;;3.70;;
9827;SDS011;4953;48.952;9.442;2022-09-01T17:17:31;6.97;;;3.80;;
9827;SDS011;4953;48.952;9.442;2022-09-01T17:20:04;4.80;;;3.70;;
9827;SDS011;4953;48.952;9.442;2022-09-01T17:22:36;5.03;;;3.10;;
9827;SDS011;4953;48.952;9.442;2022-09-01T17:25:04;4.93;;;3.63;;
9827;SDS011;4953;48.952;9.442;2022-09-01T17:27:36;4.17;;;3.77;;
9827;SDS011;4953;48.952;9.442;2022-09-01T17:30:12;3.63;;;3.30;;
9827;SDS011;4953;48.952;9.442;2022-09-01T17:32:49;6.10;;;4.00;;
9827;SDS011;4953;48.952;9.442;2022-09-01T17:35:35;7.20;;;4.00;;
9827;SDS011;4953;48.952;9.442;2022-09-01T17:38:11;4.23;;;3.77;;
9827;SDS011;4953;48.952;9.442;2022-09-01T17:40:49;4.43;;;4.03;;
9827;SDS011;4953;48.952;9.442;2022-09-01T17:43:31;6.40;;;3.97;;
9827;SDS011;4953;48.952;9.442;2022-09-01T17:46:09;4.27;;;3.90;;
9827;SDS011;4953;48.952;9.442;2022-09-01T17:48:42;3.70;;;3.40;;
9827;SDS011;4953;48.952;9.442;2022-09-01T17:51:18;6.20;;;3.97;;
9827;SDS011;4953;48.952;9.442;2022-09-01T17:53:52;4.03;;;3.63;;
9827;SDS011;4953;48.952;9.442;2022-09-01T17:56:31;5.10;;;3.47;;
9827;SDS011;4953;48.952;9.442;2022-09-01T17:59:10;5.13;;;3.27;;
9827;SDS011;4953;48.952;9.442;2022-09-01T18:01:49;5.00;;;3.63;;
9827;SDS011;4953;48.952;9.442;2022-09-01T18:04:31;4.57;;;3.17;;
9827;SDS011;4953;48.952;9.442;2022-09-01T18:07:08;4.17;;;3.80;;
9827;SDS011;4953;48.952;9.442;2022-09-01T18:09:50;4.23;;;3.73;;
9827;SDS011;4953;48.952;9.442;2022-09-01T18:12:19;4.63;;;3.50;;
9827;SDS011;4953;48.952;9.442;2022-09-01T18:14:53;4.03;;;3.43;;
9827;SDS011;4953;48.952;9.442;2022-09-01T18:17:31;4.20;;;3.90;;
9827;SDS011;4953;48.952;9.442;2022-09-01T18:20:03;3.90;;;3.60;;
9827;SDS011;4953;48.952;9.442;2022-09-01T18:22:36;3.80;;;3.50;;
9827;SDS011;4953;48.952;9.442;2022-09-01T18:25:08;3.87;;;3.50;;
9827;SDS011;4953;48.952;9.442;2022-09-01T18:27:43;6.33;;;3.93;;
9827;SDS011;4953;48.952;9.442;2022-09-01T18:30:11;4.67;;;3.67;;
9827;SDS011;4953;48.952;9.442;2022-09-01T18:32:42;3.90;;;3.47;;
9827;SDS011;4953;48.952;9.442;2022-09-01T18:35:22;5.17;;;3.40;;
9827;SDS011;4953;48.952;9.442;2022-09-01T18:38:01;3.90;;;3.37;;
9827;SDS011;4953;48.952;9.442;2022-09-01T18:40:53;4.83;;;3.87;;
9827;SDS011;4953;48.952;9.442;2022-09-01T18:43:27;4.13;;;3.50;;
9827;SDS011;4953;48.952;9.442;2022-09-01T18:45:59;5.27;;;4.07;;
9827;SDS011;4953;48.952;9.442;2022-09-01T18:48:40;4.20;;;3.90;;
9827;SDS011;4953;48.952;9.442;2022-09-01T18:51:18;4.50;;;3.50;;
9827;SDS011;4953;48.952;9.442;2022-09-01T18:53:51;4.60;;;3.50;;
9827;SDS011;4953;48.952;9.442;2022-09-01T18:56:26;5.20;;;3.37;;
9827;SDS011;4953;48.952;9.442;2022-09-01T18:59:03;6.07;;;4.00;;
9827;SDS011;4953;48.952;9.442;2022-09-01T19:01:42;4.67;;;3.77;;
9827;SDS011;4953;48.952;9.442;2022-09-01T19:04:16;3.93;;;3.63;;
9827;SDS011;4953;48.952;9.442;2022-09-01T19:06:51;4.00;;;3.50;;
9827;SDS011;4953;48.952;9.442;2022-09-01T19:09:28;4.20;;;3.80;;
9827;SDS011;4953;48.952;9.442;2022-09-01T19:12:00;3.90;;;3.50;;
9827;SDS011;4953;48.952;9.442;2022-09-01T19:14:40;7.97;;;4.90;;
9827;SDS011;4953;48.952;9.442;2022-09-01T19:17:20;4.10;;;3.70;;
9827;SDS011;4953;48.952;9.442;2022-09-01T19:20:00;6.43;;;4.50;;
9827;SDS011;4953;48.952;9.442;2022-09-01T19:22:32;5.83;;;4.30;;
9827;SDS011;4953;48.952;9.442;2022-09-01T19:25:08;5.30;;;3.50;;
9827;SDS011;4953;48.952;9.442;2022-09-01T19:27:55;5.13;;;3.80;;
9827;SDS011;4953;48.952;9.442;2022-09-01T19:30:27;4.23;;;3.83;;
9827;SDS011;4953;48.952;9.442;2022-09-01T19:32:54;4.50;;;4.10;;
9827;SDS011;4953;48.952;9.442;2022-09-01T19:35:24;4.87;;;4.27;;
9827;SDS011;4953;48.952;9.442;2022-09-01T19:37:53;4.80;;;4.00;;
9827;SDS011;4953;48.952;9.442;2022-09-01T19:40:22;4.53;;;4.03;;
9827;SDS011;4953;48.952;9.442;2022-09-01T19:42:55;4.10;;;3.63;;
9827;SDS011;4953;48.952;9.442;2022-09-01T19:45:29;5.23;;;3.97;;